createdAt,value
2018-04-12T00:00:16.712Z,10.07
2018-04-12T00:02:44.207Z,9.07
2018-04-12T00:05:11.678Z,9.50
2018-04-12T00:07:39.162Z,9.63
2018-04-12T00:10:06.655Z,8.60
2018-04-12T00:12:34.129Z,9.10
2018-04-12T00:15:02.371Z,9.47
2018-04-12T00:17:29.861Z,9.53
2018-04-12T00:19:57.325Z,9.37
2018-04-12T00:22:24.803Z,9.40
2018-04-12T00:24:52.289Z,9.50
2018-04-12T00:27:19.758Z,9.20
2018-04-12T00:29:47.344Z,10.43
2018-04-12T00:32:14.820Z,9.70
2018-04-12T00:34:42.316Z,8.67
2018-04-12T00:37:09.802Z,10.10
2018-04-12T00:39:37.333Z,10.50
2018-04-12T00:42:04.792Z,9.03
2018-04-12T00:44:32.253Z,10.17
2018-04-12T00:46:59.772Z,10.80
2018-04-12T00:49:27.286Z,10.40
2018-04-12T00:51:54.786Z,10.03
2018-04-12T00:54:22.297Z,10.50
2018-04-12T00:56:49.823Z,9.93
2018-04-12T00:59:17.266Z,9.97
2018-04-12T01:01:44.756Z,10.03
2018-04-12T01:04:12.720Z,10.67
2018-04-12T01:06:40.211Z,9.00
2018-04-12T01:09:08.455Z,11.40
2018-04-12T01:11:35.936Z,8.97
2018-04-12T01:14:03.428Z,9.17
2018-04-12T01:16:30.895Z,9.00
2018-04-12T01:18:58.459Z,9.37
2018-04-12T01:21:25.949Z,9.27
2018-04-12T01:23:53.434Z,10.00
2018-04-12T01:26:21.684Z,10.77
2018-04-12T01:28:49.166Z,10.40
2018-04-12T01:31:17.401Z,9.87
2018-04-12T01:33:44.872Z,10.73
2018-04-12T01:36:12.381Z,10.47
2018-04-12T01:38:39.839Z,11.53
2018-04-12T01:41:07.333Z,10.77
2018-04-12T01:43:34.807Z,10.17
2018-04-12T01:46:02.316Z,12.30
2018-04-12T01:48:29.807Z,12.47
2018-04-12T01:50:57.293Z,11.90
2018-04-12T01:53:24.793Z,12.93
2018-04-12T01:55:52.289Z,12.03
2018-04-12T01:58:19.795Z,12.60
2018-04-12T02:00:47.263Z,13.33
2018-04-12T02:03:14.779Z,13.57
2018-04-12T02:05:42.260Z,11.60
2018-04-12T02:08:10.515Z,12.27
2018-04-12T02:10:38.000Z,15.03
2018-04-12T02:13:05.518Z,12.87
2018-04-12T02:15:32.999Z,13.93
2018-04-12T02:18:00.493Z,15.40
2018-04-12T02:20:27.963Z,16.83
2018-04-12T02:22:55.887Z,16.80
2018-04-12T02:25:24.154Z,18.53
2018-04-12T02:27:51.642Z,16.80
2018-04-12T02:30:19.121Z,16.67
2018-04-12T02:32:46.622Z,17.07
2018-04-12T02:35:14.873Z,17.00
2018-04-12T02:37:42.398Z,19.63
2018-04-12T02:40:09.863Z,20.70
2018-04-12T02:42:37.346Z,21.40
2018-04-12T02:45:04.834Z,23.57
2018-04-12T02:47:33.061Z,22.70
2018-04-12T02:50:00.563Z,24.40
2018-04-12T02:52:28.025Z,22.40
2018-04-12T02:54:55.509Z,22.63
2018-04-12T02:57:22.980Z,23.07
2018-04-12T02:59:50.438Z,25.73
2018-04-12T03:02:17.948Z,23.50
2018-04-12T03:04:45.422Z,26.03
2018-04-12T03:07:13.663Z,27.47
2018-04-12T03:09:41.155Z,26.70
2018-04-12T03:12:08.629Z,30.47
2018-04-12T03:14:36.125Z,28.27
2018-04-12T03:17:03.609Z,31.73
2018-04-12T03:19:31.064Z,30.03
2018-04-12T03:21:58.563Z,30.80
2018-04-12T03:24:26.072Z,32.97
2018-04-12T03:26:53.550Z,31.90
2018-04-12T03:29:21.822Z,31.63
2018-04-12T03:31:49.305Z,30.30
2018-04-12T03:34:16.782Z,32.93
2018-04-12T03:36:44.270Z,33.10
2018-04-12T03:39:11.804Z,31.20
2018-04-12T03:41:39.288Z,36.43
2018-04-12T03:44:06.759Z,30.77
2018-04-12T03:46:34.253Z,33.17
2018-04-12T03:49:01.756Z,33.90
2018-04-12T03:51:29.258Z,32.10
2018-04-12T03:53:56.749Z,32.90
2018-04-12T03:56:24.226Z,33.30
2018-04-12T03:58:51.793Z,32.63
2018-04-12T04:01:19.277Z,37.13
2018-04-12T04:03:46.766Z,34.43
2018-04-12T04:06:14.238Z,34.27
2018-04-12T04:08:41.693Z,34.60
2018-04-12T04:11:09.183Z,36.50
2018-04-12T04:13:36.638Z,34.73
2018-04-12T04:16:15.997Z,35.20
2018-04-12T04:18:56.102Z,36.97
2018-04-12T04:21:23.582Z,34.20
2018-04-12T04:23:51.051Z,32.20
2018-04-12T04:26:18.525Z,29.43
2018-04-12T04:28:46.789Z,37.00
2018-04-12T04:31:14.287Z,32.40
2018-04-12T04:33:41.774Z,31.37
2018-04-12T04:36:09.273Z,33.20
2018-04-12T04:38:36.748Z,36.60
2018-04-12T04:41:04.218Z,35.20
2018-04-12T04:43:31.709Z,34.60
2018-04-12T04:45:59.515Z,40.80
2018-04-12T04:48:27.813Z,39.80
2018-04-12T04:50:55.325Z,35.13
2018-04-12T04:53:22.805Z,36.93
2018-04-12T04:55:50.280Z,31.50
2018-04-12T04:58:17.751Z,38.17
2018-04-12T05:00:45.228Z,38.70
2018-04-12T05:03:12.712Z,35.73
2018-04-12T05:05:40.215Z,39.03
2018-04-12T05:08:07.818Z,40.37
2018-04-12T05:10:35.301Z,41.00
2018-04-12T05:13:02.788Z,40.10
2018-04-12T05:15:30.306Z,41.43
2018-04-12T05:17:57.762Z,38.00
2018-04-12T05:20:25.268Z,38.17
2018-04-12T05:22:52.739Z,38.77
2018-04-12T05:25:20.223Z,39.90
2018-04-12T05:27:47.736Z,41.90
2018-04-12T05:30:15.222Z,40.90
2018-04-12T05:32:42.704Z,42.50
2018-04-12T05:35:10.165Z,39.03
2018-04-12T05:37:37.636Z,37.17
2018-04-12T05:40:05.130Z,37.23
2018-04-12T05:42:32.623Z,40.13
2018-04-12T05:45:00.136Z,39.27
2018-04-12T05:47:27.634Z,39.60
2018-04-12T05:49:55.099Z,38.07
2018-04-12T05:52:22.868Z,37.50
2018-04-12T05:54:50.383Z,42.70
2018-04-12T05:57:17.858Z,35.13
2018-04-12T05:59:45.349Z,41.63
2018-04-12T06:02:12.857Z,38.97
2018-04-12T06:04:40.353Z,39.80
2018-04-12T06:07:07.828Z,41.67
2018-04-12T06:09:35.325Z,42.77
2018-04-12T06:12:02.809Z,37.37
2018-04-12T06:14:30.290Z,37.00
2018-04-12T06:16:57.765Z,37.87
2018-04-12T06:19:25.235Z,38.53
2018-04-12T06:21:53.481Z,37.50
2018-04-12T06:24:20.973Z,40.73
2018-04-12T06:26:49.229Z,41.20
2018-04-12T06:29:16.717Z,39.37
2018-04-12T06:31:44.219Z,36.00
2018-04-12T06:34:12.132Z,34.60
2018-04-12T06:36:40.376Z,34.90
2018-04-12T06:39:07.928Z,31.90
2018-04-12T06:41:35.424Z,36.87
2018-04-12T06:44:03.663Z,36.13
2018-04-12T06:46:31.166Z,35.70
2018-04-12T06:48:58.649Z,38.70
2018-04-12T06:51:26.129Z,38.27
2018-04-12T06:53:53.662Z,36.97
2018-04-12T06:56:21.155Z,38.07
2018-04-12T06:58:48.672Z,34.27
2018-04-12T07:01:16.165Z,31.80
2018-04-12T07:03:44.418Z,34.70
2018-04-12T07:06:11.937Z,32.90
2018-04-12T07:08:39.420Z,33.00
2018-04-12T07:11:06.919Z,34.77
2018-04-12T07:13:34.417Z,32.30
2018-04-12T07:16:01.920Z,35.40
2018-04-12T07:18:29.404Z,36.37
2018-04-12T07:20:56.923Z,35.37
2018-04-12T07:23:24.407Z,37.60
2018-04-12T07:25:51.919Z,34.00
2018-04-12T07:28:20.174Z,36.57
2018-04-12T07:30:48.417Z,34.30
2018-04-12T07:33:15.926Z,35.03
2018-04-12T07:35:43.429Z,32.47
2018-04-12T07:38:10.900Z,34.03
2018-04-12T07:40:38.396Z,34.30
2018-04-12T07:43:05.891Z,32.93
2018-04-12T07:45:33.377Z,33.43
2018-04-12T07:48:00.845Z,33.20
2018-04-12T07:50:29.096Z,33.70
2018-04-12T07:52:56.623Z,33.73
2018-04-12T07:55:24.880Z,32.23
2018-04-12T07:57:53.117Z,27.20
2018-04-12T08:00:20.617Z,31.70
2018-04-12T08:02:48.097Z,28.67
2018-04-12T08:05:15.577Z,30.70
2018-04-12T08:07:43.084Z,31.37
2018-04-12T08:10:10.565Z,31.70
2018-04-12T08:12:38.044Z,31.70
2018-04-12T08:15:05.522Z,31.70
2018-04-12T08:17:33.054Z,29.50
2018-04-12T08:20:00.522Z,30.33
2018-04-12T08:22:28.013Z,29.70
2018-04-12T08:24:55.490Z,31.73
2018-04-12T08:27:23.002Z,31.37
2018-04-12T08:29:50.484Z,28.47
2018-04-12T08:32:18.719Z,29.77
2018-04-12T08:34:46.216Z,28.10
2018-04-12T08:37:14.451Z,27.20
2018-04-12T08:39:41.958Z,30.40
2018-04-12T08:42:09.439Z,27.90
2018-04-12T08:44:36.945Z,27.57
2018-04-12T08:47:04.460Z,26.27
2018-04-12T08:49:31.932Z,24.47
2018-04-12T08:51:59.426Z,25.60
2018-04-12T08:54:27.675Z,25.73
2018-04-12T08:56:55.158Z,21.57
2018-04-12T08:59:23.458Z,23.33
2018-04-12T09:01:50.941Z,23.37
2018-04-12T09:04:18.445Z,21.47
2018-04-12T09:06:45.908Z,20.97
2018-04-12T09:09:14.158Z,19.93
2018-04-12T09:11:41.658Z,21.03
2018-04-12T09:14:09.140Z,20.47
2018-04-12T09:16:36.635Z,17.80
2018-04-12T09:19:04.125Z,15.97
2018-04-12T09:21:32.758Z,14.77
2018-04-12T09:24:00.251Z,11.93
2018-04-12T09:26:27.767Z,13.00
2018-04-12T09:28:55.271Z,12.37
2018-04-12T09:31:22.780Z,10.87
2018-04-12T09:33:50.271Z,11.40
2018-04-12T09:36:17.770Z,11.77
2018-04-12T09:38:45.283Z,11.33
2018-04-12T09:41:12.767Z,12.17
2018-04-12T09:43:40.276Z,11.97
2018-04-12T09:46:07.770Z,12.70
2018-04-12T09:48:35.260Z,13.20
2018-04-12T09:51:02.772Z,12.77
2018-04-12T09:53:30.275Z,12.73
2018-04-12T09:55:57.765Z,12.90
2018-04-12T09:58:25.271Z,12.10
2018-04-12T10:00:55.578Z,13.00
2018-04-12T10:03:23.084Z,11.17
2018-04-12T10:05:56.325Z,10.70
2018-04-12T10:08:28.609Z,11.70
2018-04-12T10:10:56.102Z,10.50
2018-04-12T10:13:23.583Z,10.60
2018-04-12T10:15:51.079Z,11.47
2018-04-12T10:18:19.255Z,12.47
2018-04-12T10:20:46.787Z,10.37
2018-04-12T10:23:15.092Z,13.80
2018-04-12T10:25:43.383Z,13.50
2018-04-12T10:28:11.631Z,12.60
2018-04-12T10:30:39.125Z,13.07
2018-04-12T10:33:06.631Z,12.70
2018-04-12T10:35:34.117Z,15.10
2018-04-12T10:38:01.599Z,13.13
2018-04-12T10:40:29.110Z,12.90
2018-04-12T10:42:56.586Z,13.90
2018-04-12T10:45:24.054Z,13.03
2018-04-12T10:47:51.569Z,12.20
2018-04-12T10:50:19.043Z,13.67
2018-04-12T10:52:46.526Z,13.10
2018-04-12T10:55:14.813Z,12.07
2018-04-12T10:57:43.069Z,11.53
2018-04-12T11:00:10.546Z,13.20
2018-04-12T11:02:38.071Z,12.47
2018-04-12T11:05:05.560Z,12.73
2018-04-12T11:07:33.054Z,13.70
2018-04-12T11:10:00.542Z,13.67
2018-04-12T11:12:28.034Z,12.70
2018-04-12T11:14:56.286Z,12.57
2018-04-12T11:17:23.772Z,13.03
2018-04-12T11:19:51.268Z,13.40
2018-04-12T11:22:18.755Z,14.53
2018-04-12T11:24:46.279Z,12.97
2018-04-12T11:27:13.757Z,13.70
2018-04-12T11:29:41.260Z,14.00
2018-04-12T11:32:08.775Z,15.63
2018-04-12T11:34:36.301Z,15.60
2018-04-12T11:37:03.806Z,15.93
2018-04-12T11:39:31.319Z,15.80
2018-04-12T11:41:58.802Z,15.00
2018-04-12T11:44:26.282Z,15.70
2018-04-12T11:46:53.790Z,14.97
2018-04-12T11:49:21.258Z,14.27
2018-04-12T11:51:48.759Z,13.87
2018-04-12T11:54:16.254Z,15.17
2018-04-12T11:56:43.797Z,14.60
2018-04-12T11:59:11.266Z,14.43
2018-04-12T12:01:38.806Z,15.03
2018-04-12T12:04:06.251Z,14.33
2018-04-12T12:06:34.509Z,13.80
2018-04-12T12:09:02.019Z,13.73
2018-04-12T12:11:29.533Z,14.57
2018-04-12T12:13:57.047Z,15.70
2018-04-12T12:16:24.587Z,15.23
2018-04-12T12:18:52.082Z,15.30
2018-04-12T12:21:19.578Z,15.23
2018-04-12T12:23:47.888Z,14.50
2018-04-12T12:26:16.144Z,15.80
2018-04-12T12:28:44.408Z,15.70
2018-04-12T12:31:12.663Z,14.33
2018-04-12T12:33:40.162Z,15.53
2018-04-12T12:36:08.436Z,16.03
2018-04-12T12:38:35.949Z,15.53
2018-04-12T12:41:03.477Z,15.50
2018-04-12T12:43:31.733Z,16.80
2018-04-12T12:45:59.187Z,17.30
2018-04-12T12:48:38.215Z,16.43
2018-04-12T12:51:05.714Z,14.57
2018-04-12T12:53:44.933Z,14.83
2018-04-12T12:56:18.339Z,15.67
2018-04-12T12:58:45.881Z,16.97
2018-04-12T13:01:19.182Z,13.47
2018-04-12T13:03:52.434Z,14.23
2018-04-12T13:06:26.615Z,14.40
2018-04-12T13:08:54.116Z,13.80
2018-04-12T13:11:22.367Z,13.77
2018-04-12T13:13:49.863Z,11.90
2018-04-12T13:16:17.364Z,11.93
2018-04-12T13:18:50.492Z,12.00
2018-04-12T13:21:24.773Z,11.13
2018-04-12T13:23:52.275Z,10.90
2018-04-12T13:26:25.704Z,12.00
2018-04-12T13:29:04.830Z,11.03
2018-04-12T13:31:32.356Z,11.00
2018-04-12T13:34:00.605Z,10.00
2018-04-12T13:36:28.101Z,10.10
2018-04-12T13:38:55.589Z,10.77
2018-04-12T13:41:23.079Z,11.10
2018-04-12T13:43:56.377Z,10.40
2018-04-12T13:46:23.855Z,11.03
2018-04-12T13:48:51.339Z,10.07
2018-04-12T13:51:18.863Z,11.50
2018-04-12T13:53:47.110Z,9.90
2018-04-12T13:56:20.500Z,10.13
2018-04-12T13:58:47.986Z,11.27
2018-04-12T14:01:22.327Z,10.10
2018-04-12T14:03:49.822Z,11.20
2018-04-12T14:06:17.317Z,10.27
2018-04-12T14:08:45.619Z,9.90
2018-04-12T14:11:13.194Z,9.70
2018-04-12T14:13:46.532Z,10.40
2018-04-12T14:16:14.024Z,9.30
2018-04-12T14:18:41.492Z,8.37
2018-04-12T14:21:09.001Z,8.53
2018-04-12T14:23:54.029Z,8.27
2018-04-12T14:26:21.530Z,9.27
2018-04-12T14:28:54.744Z,7.37
2018-04-12T14:31:22.279Z,7.83
2018-04-12T14:33:49.743Z,7.20
2018-04-12T14:36:17.310Z,8.33
2018-04-12T14:38:50.353Z,7.87
2018-04-12T14:41:23.674Z,7.90
2018-04-12T14:43:51.228Z,7.53
2018-04-12T14:46:18.693Z,7.00
2018-04-12T14:48:57.761Z,7.70
2018-04-12T14:51:25.251Z,6.67
2018-04-12T14:53:52.747Z,6.57
2018-04-12T14:56:20.257Z,6.87
2018-04-12T14:58:47.754Z,6.07
2018-04-12T15:01:15.234Z,5.63
2018-04-12T15:03:48.606Z,6.60
2018-04-12T15:06:22.003Z,6.10
2018-04-12T15:08:49.506Z,6.50
2018-04-12T15:11:28.597Z,5.97
2018-04-12T15:13:56.088Z,5.97
2018-04-12T15:16:23.568Z,6.00
2018-04-12T15:18:51.078Z,5.93
2018-04-12T15:21:24.325Z,6.00
2018-04-12T15:23:51.798Z,5.87
2018-04-12T15:26:25.126Z,5.80
2018-04-12T15:28:52.625Z,6.13
2018-04-12T15:31:20.115Z,6.20
2018-04-12T15:33:53.563Z,5.30
2018-04-12T15:36:21.044Z,5.83
2018-04-12T15:38:48.541Z,5.70
2018-04-12T15:41:16.038Z,5.77
2018-04-12T15:43:43.515Z,5.23
2018-04-12T15:46:11.050Z,5.90
2018-04-12T15:48:50.221Z,5.30
2018-04-12T15:51:29.366Z,6.23
2018-04-12T15:54:02.760Z,6.73
2018-04-12T15:56:37.059Z,5.67
2018-04-12T15:59:04.546Z,6.03
2018-04-12T16:01:32.048Z,6.07
2018-04-12T16:03:59.531Z,5.47
2018-04-12T16:06:27.073Z,5.27
2018-04-12T16:08:54.543Z,4.93
2018-04-12T16:11:28.399Z,6.60
2018-04-12T16:13:56.631Z,4.90
2018-04-12T16:16:24.126Z,7.20
2018-04-12T16:18:51.640Z,8.80
2018-04-12T16:21:19.124Z,6.10
2018-04-12T16:23:52.438Z,5.53
2018-04-12T16:26:25.852Z,5.33
2018-04-12T16:28:54.142Z,61.77
2018-04-12T16:31:21.622Z,15.57
2018-04-12T16:33:49.094Z,8.43
2018-04-12T16:36:16.616Z,4.43
2018-04-12T16:38:44.087Z,4.47
2018-04-12T16:41:11.606Z,4.70
2018-04-12T16:43:39.106Z,8.70
2018-04-12T16:46:12.362Z,4.53
2018-04-12T16:48:46.392Z,5.03
2018-04-12T16:51:19.714Z,4.50
2018-04-12T16:53:47.185Z,4.50
2018-04-12T16:56:14.925Z,5.17
2018-04-12T16:58:42.430Z,4.27
2018-04-12T17:01:10.030Z,5.30
2018-04-12T17:03:43.345Z,4.73
2018-04-12T17:06:10.823Z,7.90
2018-04-12T17:08:38.310Z,5.03
2018-04-12T17:11:06.561Z,5.17
2018-04-12T17:13:40.069Z,9.50
2018-04-12T17:16:07.532Z,26.73
2018-04-12T17:18:35.023Z,5.60
2018-04-12T17:21:02.510Z,4.97
2018-04-12T17:23:35.974Z,4.23
2018-04-12T17:26:09.229Z,4.13
2018-04-12T17:28:42.489Z,3.37
2018-04-12T17:31:09.950Z,3.40
2018-04-12T17:33:37.462Z,4.10
2018-04-12T17:36:05.714Z,3.50
2018-04-12T17:38:33.294Z,3.67
2018-04-12T17:41:01.558Z,3.43
2018-04-12T17:43:29.462Z,3.47
2018-04-12T17:45:56.934Z,3.37
2018-04-12T17:48:29.985Z,4.07
2018-04-12T17:50:58.227Z,3.30
2018-04-12T17:53:25.784Z,3.80
2018-04-12T17:55:59.163Z,3.83
2018-04-12T17:58:26.659Z,3.40
2018-04-12T18:00:54.391Z,3.50
2018-04-12T18:03:28.597Z,5.57
2018-04-12T18:05:56.192Z,3.77
2018-04-12T18:08:23.658Z,4.20
2018-04-12T18:10:51.170Z,4.03
2018-04-12T18:13:24.608Z,4.50
2018-04-12T18:15:52.966Z,4.10
2018-04-12T18:18:20.459Z,3.60
2018-04-12T18:20:48.766Z,3.80
2018-04-12T18:23:16.288Z,4.03
2018-04-12T18:25:44.549Z,3.63
2018-04-12T18:28:17.608Z,3.80
2018-04-12T18:30:45.136Z,4.40
2018-04-12T18:33:18.636Z,3.83
2018-04-12T18:35:51.739Z,4.00
2018-04-12T18:38:19.226Z,4.00
2018-04-12T18:40:46.950Z,4.00
2018-04-12T18:43:14.456Z,3.70
2018-04-12T18:45:48.451Z,3.77
2018-04-12T18:48:15.971Z,4.53
2018-04-12T18:50:49.082Z,5.00
2018-04-12T18:53:16.622Z,5.23
2018-04-12T18:55:44.106Z,4.60
2018-04-12T18:58:17.440Z,5.30
2018-04-12T19:00:44.956Z,3.77
2018-04-12T19:03:18.794Z,4.00
2018-04-12T19:05:46.297Z,4.73
2018-04-12T19:08:13.826Z,4.00
2018-04-12T19:10:42.100Z,4.80
2018-04-12T19:13:09.596Z,4.50
2018-04-12T19:15:43.017Z,5.23
2018-04-12T19:18:10.494Z,6.50
2018-04-12T19:20:43.784Z,6.13
2018-04-12T19:23:11.321Z,5.17
2018-04-12T19:25:38.844Z,5.70
2018-04-12T19:28:06.341Z,5.20
2018-04-12T19:30:39.661Z,5.30
2018-04-12T19:33:13.021Z,5.37
2018-04-12T19:35:46.036Z,5.03
2018-04-12T19:38:13.565Z,4.90
2018-04-12T19:40:46.672Z,5.47
2018-04-12T19:43:20.139Z,4.50
2018-04-12T19:45:59.395Z,5.00
2018-04-12T19:48:26.937Z,4.07
2018-04-12T19:51:00.239Z,4.70
2018-04-12T19:53:33.662Z,4.37
2018-04-12T19:56:01.187Z,4.43
2018-04-12T19:58:28.693Z,4.93
2018-04-12T20:00:56.206Z,5.13
2018-04-12T20:03:29.277Z,5.40
2018-04-12T20:06:02.895Z,6.10
2018-04-12T20:08:36.194Z,6.70
2018-04-12T20:11:03.726Z,6.40
2018-04-12T20:13:37.143Z,6.00
2018-04-12T20:16:10.475Z,7.20
2018-04-12T20:18:37.947Z,6.60
2018-04-12T20:21:11.276Z,6.97
2018-04-12T20:23:44.492Z,6.00
2018-04-12T20:26:17.895Z,6.43
2018-04-12T20:28:45.696Z,6.77
2018-04-12T20:31:19.196Z,6.70
2018-04-12T20:33:47.508Z,6.37
2018-04-12T20:36:26.698Z,6.33
2018-04-12T20:38:54.201Z,6.37
2018-04-12T20:41:21.717Z,7.13
2018-04-12T20:43:50.553Z,6.23
2018-04-12T20:46:18.044Z,6.27
2018-04-12T20:48:51.141Z,6.80
2018-04-12T20:51:18.675Z,6.03
2018-04-12T20:53:51.978Z,5.97
2018-04-12T20:56:19.499Z,6.83
2018-04-12T20:58:47.006Z,6.40
2018-04-12T21:01:20.237Z,6.87
2018-04-12T21:03:47.743Z,7.00
2018-04-12T21:06:15.233Z,6.80
2018-04-12T21:08:42.727Z,6.80
2018-04-12T21:11:16.112Z,7.03
2018-04-12T21:13:49.413Z,6.97
2018-04-12T21:16:22.788Z,6.73
2018-04-12T21:18:51.054Z,7.47
2018-04-12T21:21:18.534Z,7.07
2018-04-12T21:23:52.718Z,8.53
2018-04-12T21:26:21.018Z,7.67
2018-04-12T21:28:48.438Z,7.50
2018-04-12T21:31:15.967Z,7.57
2018-04-12T21:33:49.175Z,8.00
2018-04-12T21:36:16.688Z,8.97
2018-04-12T21:38:56.659Z,8.90
2018-04-12T21:41:24.133Z,9.20
2018-04-12T21:43:58.065Z,9.47
2018-04-12T21:46:25.562Z,8.37
2018-04-12T21:48:59.385Z,8.00
2018-04-12T21:51:33.231Z,7.90
2018-04-12T21:54:12.412Z,8.30
2018-04-12T21:56:39.911Z,8.83
2018-04-12T21:59:13.241Z,9.67
2018-04-12T22:01:40.971Z,9.03
2018-04-12T22:04:08.432Z,8.80
2018-04-12T22:06:41.552Z,8.90
2018-04-12T22:09:14.926Z,9.20
2018-04-12T22:11:48.350Z,8.40
2018-04-12T22:14:15.805Z,7.20
2018-04-12T22:16:43.287Z,9.60
2018-04-12T22:19:11.527Z,9.20
2018-04-12T22:21:39.007Z,9.30
2018-04-12T22:24:07.252Z,9.37
2018-04-12T22:26:34.742Z,10.67
2018-04-12T22:29:14.678Z,10.10
2018-04-12T22:31:48.056Z,11.73
2018-04-12T22:34:15.546Z,8.93
2018-04-12T22:36:43.788Z,7.97
2018-04-12T22:39:17.077Z,7.63
2018-04-12T22:41:44.578Z,7.50
2018-04-12T22:44:12.289Z,8.00
2018-04-12T22:46:39.763Z,7.70
2018-04-12T22:49:07.247Z,7.17
2018-04-12T22:51:35.529Z,7.80
2018-04-12T22:54:09.325Z,7.53
2018-04-12T22:56:37.602Z,6.90
2018-04-12T22:59:05.841Z,8.50
2018-04-12T23:01:39.050Z,8.40
2018-04-12T23:04:06.537Z,9.70
2018-04-12T23:06:34.059Z,8.73
2018-04-12T23:09:01.502Z,8.87
2018-04-12T23:11:34.565Z,9.40
2018-04-12T23:14:02.053Z,9.50
2018-04-12T23:16:29.550Z,9.80
2018-04-12T23:19:03.626Z,10.70
2018-04-12T23:21:31.081Z,12.00
2018-04-12T23:24:04.431Z,11.20
2018-04-12T23:26:37.837Z,11.83
2018-04-12T23:29:11.273Z,11.03
2018-04-12T23:31:38.727Z,11.10
2018-04-12T23:34:12.119Z,13.27
2018-04-12T23:36:39.619Z,11.17
2018-04-12T23:39:07.100Z,11.97
2018-04-12T23:41:40.469Z,11.30
2018-04-12T23:44:14.592Z,11.10
2018-04-12T23:46:42.864Z,12.13
2018-04-12T23:49:11.122Z,12.17
2018-04-12T23:51:38.599Z,12.47
2018-04-12T23:54:12.406Z,13.57
2018-04-12T23:56:39.874Z,13.13
2018-04-12T23:59:12.941Z,14.87
